Time;durP1;ratioP1;P1;durP2;ratioP2;P2;SDS_P1;SDS_P2;PMS_P1;PMS_P2;Temp;Humidity;BMP_temperature;BMP_pressure;BME280_temperature;BME280_humidity;BME280_pressure;Samples;Min_cycle;Max_cycle;Signal;HPM_P1;HPM_P2
2023/06/19 00:01:11;;;;;;;3.30;3.10;;;23.40;47.90;22.80;96209.00;;;;5067212;28;20294;-82
2023/06/19 00:03:39;;;;;;;3.40;3.20;;;23.40;48.10;22.80;96200.00;;;;5066004;28;20276;-81
2023/06/19 00:06:07;;;;;;;3.77;3.03;;;23.30;48.20;22.70;96210.00;;;;5070531;28;20303;-82
2023/06/19 00:08:36;;;;;;;3.17;2.97;;;23.30;48.10;22.70;96208.00;;;;5083587;28;20201;-82
2023/06/19 00:11:04;;;;;;;3.10;2.90;;;23.30;48.20;22.70;96203.00;;;;5063747;28;20205;-82
2023/06/19 00:13:32;;;;;;;3.27;3.07;;;23.30;48.10;22.60;96199.00;;;;5062093;28;20224;-83
2023/06/19 00:16:00;;;;;;;3.70;3.40;;;23.20;48.10;22.60;96204.00;;;;5054662;28;20211;-82
2023/06/19 00:18:27;;;;;;;3.30;3.00;;;23.20;48.20;22.60;96196.00;;;;5058947;28;20564;-82
2023/06/19 00:20:56;;;;;;;3.47;3.17;;;23.20;48.40;22.50;96194.00;;;;5052837;28;20201;-82
2023/06/19 00:23:24;;;;;;;3.03;2.80;;;23.10;48.50;22.50;96202.00;;;;5053852;28;20227;-81
2023/06/19 00:25:53;;;;;;;3.17;2.93;;;23.10;48.70;22.50;96201.00;;;;5066476;28;20282;-82
2023/06/19 00:28:21;;;;;;;3.40;3.00;;;23.10;48.80;22.50;96202.00;;;;5055408;28;20608;-82
2023/06/19 00:30:48;;;;;;;3.70;3.40;;;23.10;48.90;22.50;96193.00;;;;5053320;28;20197;-83
2023/06/19 00:33:16;;;;;;;3.97;3.00;;;23.00;48.80;22.50;96191.00;;;;5054183;28;20227;-81
2023/06/19 00:35:43;;;;;;;3.70;3.40;;;23.00;48.80;22.50;96185.00;;;;5072388;28;20659;-82
2023/06/19 00:38:11;;;;;;;3.00;2.70;;;23.00;48.90;22.50;96180.00;;;;5055365;28;20214;-82
2023/06/19 00:40:39;;;;;;;3.23;3.00;;;23.00;49.00;22.40;96176.00;;;;5071353;28;20691;-83
2023/06/19 00:43:08;;;;;;;3.33;3.03;;;23.00;49.10;22.40;96170.00;;;;5047304;28;20294;-82
2023/06/19 00:45:35;;;;;;;3.13;2.93;;;23.00;49.00;22.40;96168.00;;;;5057355;28;20193;-83
2023/06/19 00:48:05;;;;;;;3.30;2.97;;;23.00;49.10;22.40;96178.00;;;;5066494;28;20215;-82
2023/06/19 00:50:32;;;;;;;3.23;3.03;;;23.00;49.30;22.40;96179.00;;;;5048629;28;20213;-83
2023/06/19 00:53:02;;;;;;;3.27;3.07;;;23.00;49.90;22.40;96173.00;;;;5058467;28;20237;-83
2023/06/19 00:55:31;;;;;;;4.60;3.70;;;23.00;49.50;22.40;96177.00;;;;5046378;28;20200;-82
2023/06/19 00:58:01;;;;;;;3.10;2.90;;;23.00;49.40;22.40;96180.00;;;;5053168;28;20193;-82
2023/06/19 01:00:30;;;;;;;3.07;2.87;;;23.00;49.40;22.40;96178.00;;;;5072523;28;20222;-81
2023/06/19 01:02:57;;;;;;;3.50;3.20;;;22.90;49.50;22.40;96184.00;;;;5036763;28;20243;-83
2023/06/19 01:05:25;;;;;;;3.13;2.93;;;22.90;49.40;22.40;96184.00;;;;5053548;28;20234;-83
2023/06/19 01:08:01;;;;;;;3.27;3.07;;;22.90;49.60;22.40;96190.00;;;;5052313;28;20242;-82
2023/06/19 01:10:36;;;;;;;3.50;3.30;;;22.90;49.90;22.40;96193.00;;;;5053339;28;20223;-83
2023/06/19 01:13:11;;;;;;;3.10;2.90;;;22.90;49.70;22.40;96197.00;;;;5048904;28;20204;-82
2023/06/19 01:15:42;;;;;;;3.23;2.93;;;22.90;49.70;22.40;96206.00;;;;5062933;28;20196;-81
2023/06/19 01:18:12;;;;;;;2.97;2.77;;;22.90;49.60;22.40;96209.00;;;;5049360;28;20216;-82
2023/06/19 01:20:39;;;;;;;3.40;3.10;;;23.00;49.70;22.50;96210.00;;;;5053953;28;20203;-82
2023/06/19 01:23:11;;;;;;;3.70;3.37;;;23.00;49.70;22.50;96202.00;;;;5068861;28;20200;-83
2023/06/19 01:25:39;;;;;;;3.30;3.03;;;23.00;49.90;22.50;96202.00;;;;5052893;28;20280;-82
2023/06/19 01:28:10;;;;;;;3.60;3.30;;;23.00;49.90;22.50;96208.00;;;;5052662;28;20200;-82
2023/06/19 01:30:41;;;;;;;3.60;3.30;;;23.00;50.00;22.60;96206.00;;;;5049226;28;20205;-82
2023/06/19 01:33:16;;;;;;;3.17;2.97;;;23.00;50.10;22.60;96209.00;;;;5050652;28;20197;-82
2023/06/19 01:35:47;;;;;;;3.87;3.27;;;23.10;50.40;22.60;96199.00;;;;5054867;28;20641;-83
2023/06/19 01:38:18;;;;;;;3.13;2.93;;;23.10;50.20;22.60;96206.00;;;;5053944;28;20209;-83
2023/06/19 01:40:47;;;;;;;3.63;3.33;;;23.10;50.20;22.60;96199.00;;;;5054133;28;20279;-83
2023/06/19 01:43:17;;;;;;;4.37;3.30;;;23.10;50.10;22.60;96203.00;;;;5056105;28;20730;-83
2023/06/19 01:45:44;;;;;;;3.90;3.60;;;23.10;50.40;22.60;96199.00;;;;5087758;28;20205;-83
2023/06/19 01:48:11;;;;;;;3.77;3.47;;;23.10;50.40;22.60;96201.00;;;;5068281;28;20207;-82
2023/06/19 01:50:38;;;;;;;3.37;3.07;;;23.10;50.40;22.60;96204.00;;;;5054639;28;20201;-83
2023/06/19 01:53:06;;;;;;;3.63;3.33;;;23.10;50.40;22.70;96204.00;;;;5052048;28;20661;-83
2023/06/19 01:55:35;;;;;;;3.77;3.43;;;23.20;50.50;22.70;96203.00;;;;5055057;28;20225;-82
2023/06/19 01:58:02;;;;;;;3.37;3.17;;;23.20;50.70;22.70;96209.00;;;;5051292;28;20296;-83
2023/06/19 02:00:30;;;;;;;3.40;3.20;;;23.20;50.70;22.70;96204.00;;;;5051344;28;20676;-82
2023/06/19 02:02:57;;;;;;;3.57;3.27;;;23.20;50.70;22.70;96209.00;;;;5058325;28;20244;-82
2023/06/19 02:05:25;;;;;;;3.43;3.23;;;23.20;50.80;22.70;96210.00;;;;5055414;28;20307;-82
2023/06/19 02:07:52;;;;;;;4.20;3.80;;;23.20;50.70;22.80;96216.00;;;;5053511;28;20200;-82
2023/06/19 02:10:19;;;;;;;3.73;3.43;;;23.20;50.70;22.80;96213.00;;;;5056541;28;20288;-81
2023/06/19 02:12:48;;;;;;;3.57;3.27;;;23.30;50.80;22.80;96218.00;;;;5054714;28;20203;-83
2023/06/19 02:15:15;;;;;;;3.57;3.27;;;23.30;50.90;22.80;96211.00;;;;5059702;28;20221;-82
2023/06/19 02:17:43;;;;;;;3.90;3.60;;;23.30;50.80;22.80;96222.00;;;;5050134;28;20655;-82
2023/06/19 02:20:12;;;;;;;3.43;3.13;;;23.30;50.70;22.80;96211.00;;;;5050374;28;20208;-82
2023/06/19 02:22:39;;;;;;;4.37;3.97;;;23.30;50.70;22.80;96212.00;;;;5047120;28;20270;-81
2023/06/19 02:25:08;;;;;;;3.73;3.43;;;23.30;50.60;22.80;96204.00;;;;5051928;28;20224;-83
2023/06/19 02:27:36;;;;;;;3.30;3.10;;;23.30;50.50;22.80;96212.00;;;;5053998;28;20201;-83
2023/06/19 02:30:06;;;;;;;3.53;3.27;;;23.30;50.50;22.80;96205.00;;;;5073697;28;20197;-82
2023/06/19 02:32:33;;;;;;;4.37;3.97;;;23.30;50.40;22.80;96201.00;;;;5065995;28;20192;-83
2023/06/19 02:35:00;;;;;;;4.93;3.87;;;23.30;50.30;22.80;96202.00;;;;5063359;28;20257;-83
2023/06/19 02:37:29;;;;;;;3.97;3.60;;;23.30;50.30;22.80;96198.00;;;;5062753;28;20189;-83
2023/06/19 02:39:57;;;;;;;3.50;2.97;;;23.30;50.30;22.80;96195.00;;;;5055227;28;20197;-83
2023/06/19 02:42:24;;;;;;;3.20;3.00;;;23.30;50.30;22.90;96193.00;;;;5052730;28;20410;-82
2023/06/19 02:44:51;;;;;;;3.63;3.37;;;23.30;50.50;22.80;96197.00;;;;5052804;28;20295;-83
2023/06/19 02:47:20;;;;;;;3.73;3.43;;;23.30;50.80;22.90;96190.00;;;;5052415;28;20291;-83
2023/06/19 02:49:47;;;;;;;4.00;3.70;;;23.30;50.50;22.90;96190.00;;;;5052177;28;20211;-83
2023/06/19 02:52:14;;;;;;;4.13;3.57;;;23.40;50.60;22.90;96191.00;;;;5052451;28;20198;-82
2023/06/19 02:54:42;;;;;;;3.37;3.17;;;23.40;50.80;22.90;96193.00;;;;5056307;28;20311;-83
2023/06/19 02:57:09;;;;;;;3.93;3.17;;;23.40;51.10;22.90;96196.00;;;;5083230;28;20213;-83
2023/06/19 02:59:36;;;;;;;3.97;3.60;;;23.40;50.80;22.90;96202.00;;;;5051468;28;20216;-83
2023/06/19 03:02:04;;;;;;;3.90;3.60;;;23.40;50.80;22.90;96206.00;;;;5050863;28;20279;-82
2023/06/19 03:04:33;;;;;;;3.70;3.40;;;23.40;50.90;22.80;96193.00;;;;5049907;28;20295;-82
2023/06/19 03:07:02;;;;;;;3.63;3.37;;;23.40;51.10;22.80;96195.00;;;;5049993;28;20197;-82
2023/06/19 03:09:30;;;;;;;3.67;3.47;;;23.40;51.10;22.80;96194.00;;;;5040895;28;20653;-83
2023/06/19 03:11:57;;;;;;;4.17;3.73;;;23.40;51.20;22.80;96198.00;;;;5068022;28;20230;-82
2023/06/19 03:14:24;;;;;;;3.50;3.20;;;23.30;51.20;22.90;96202.00;;;;5049702;28;20749;-83
2023/06/19 03:16:51;;;;;;;3.47;3.17;;;23.40;51.40;22.80;96203.00;;;;5051702;28;20283;-83
2023/06/19 03:19:19;;;;;;;3.80;3.50;;;23.40;52.10;22.80;96207.00;;;;5082729;28;20281;-83
2023/06/19 03:21:47;;;;;;;4.40;4.00;;;23.40;51.60;22.80;96213.00;;;;5049685;28;20197;-83
2023/06/19 03:24:14;;;;;;;3.90;3.60;;;23.40;51.80;22.80;96220.00;;;;5050629;28;20661;-82
2023/06/19 03:26:42;;;;;;;3.70;3.40;;;23.30;51.90;22.80;96219.00;;;;5049260;28;20199;-83
2023/06/19 03:29:09;;;;;;;3.83;3.40;;;23.30;52.00;22.80;96223.00;;;;5049172;28;20203;-82
2023/06/19 03:31:36;;;;;;;3.90;3.43;;;23.30;52.00;22.80;96228.00;;;;5073727;28;20676;-83
2023/06/19 03:34:04;;;;;;;4.30;3.90;;;23.30;52.10;22.70;96229.00;;;;5054880;28;20220;-82
2023/06/19 03:36:31;;;;;;;4.10;3.70;;;23.30;52.10;22.70;96227.00;;;;5053787;28;20659;-83
2023/06/19 03:38:59;;;;;;;4.17;3.87;;;23.30;52.10;22.70;96222.00;;;;5056145;28;20628;-83
2023/06/19 03:41:26;;;;;;;4.03;3.73;;;23.30;52.20;22.70;96229.00;;;;5071503;28;20189;-81
2023/06/19 03:43:54;;;;;;;3.93;3.63;;;23.30;52.20;22.70;96241.00;;;;5055548;28;20220;-83
2023/06/19 03:46:21;;;;;;;4.37;4.03;;;23.30;52.20;22.70;96243.00;;;;5058500;28;20200;-83
2023/06/19 03:48:48;;;;;;;3.87;3.57;;;23.30;52.40;22.80;96250.00;;;;5051616;28;20204;-83
2023/06/19 03:51:16;;;;;;;4.27;3.87;;;23.30;52.30;22.80;96257.00;;;;5054378;28;20211;-82
2023/06/19 03:53:43;;;;;;;3.90;3.60;;;23.30;52.30;22.70;96256.00;;;;5039922;28;20584;-82
2023/06/19 03:56:12;;;;;;;4.30;3.90;;;23.30;52.90;22.70;96262.00;;;;5055302;28;20295;-83
2023/06/19 03:58:39;;;;;;;4.20;3.80;;;23.20;52.50;22.70;96261.00;;;;5059133;28;20194;-83
2023/06/19 04:01:09;;;;;;;4.27;3.87;;;23.30;52.50;22.70;96251.00;;;;5055098;28;20555;-82
2023/06/19 04:03:36;;;;;;;4.87;3.83;;;23.30;52.80;22.70;96263.00;;;;5065262;28;20230;-83
2023/06/19 04:06:03;;;;;;;5.07;4.67;;;23.30;52.90;22.80;96264.00;;;;5056368;28;20274;-83
2023/06/19 04:08:31;;;;;;;4.40;4.00;;;23.30;53.00;22.70;96271.00;;;;5047475;28;20741;-83
2023/06/19 04:10:58;;;;;;;4.20;3.83;;;23.20;52.80;22.70;96267.00;;;;5055856;28;22020;-83
2023/06/19 04:13:27;;;;;;;4.27;3.73;;;23.30;52.90;22.70;96266.00;;;;5061422;28;20231;-82
2023/06/19 04:15:54;;;;;;;5.07;4.67;;;23.20;53.00;22.70;96273.00;;;;5067944;28;20307;-83
2023/06/19 04:18:21;;;;;;;8.13;4.10;;;23.20;53.20;22.70;96273.00;;;;5054593;28;20203;-81
2023/06/19 04:20:48;;;;;;;4.40;4.00;;;23.30;53.30;22.70;96270.00;;;;5056140;28;20289;-83
2023/06/19 04:23:16;;;;;;;4.30;3.93;;;23.30;53.30;22.70;96274.00;;;;5068933;28;20199;-83
2023/06/19 04:25:43;;;;;;;3.87;3.57;;;23.30;53.50;22.70;96276.00;;;;5055188;28;20223;-82
2023/06/19 04:28:10;;;;;;;4.70;4.30;;;23.30;53.60;22.70;96283.00;;;;5054798;28;20200;-83
2023/06/19 04:30:40;;;;;;;4.03;3.73;;;23.30;53.70;22.70;96279.00;;;;5055090;28;20639;-81
2023/06/19 04:33:08;;;;;;;4.50;4.10;;;23.20;53.80;22.70;96288.00;;;;5060757;28;20199;-82
2023/06/19 04:35:39;;;;;;;4.90;4.07;;;23.20;53.90;22.70;96291.00;;;;5051174;28;20220;-83
2023/06/19 04:38:07;;;;;;;4.53;4.10;;;23.30;54.10;22.80;96293.00;;;;5056596;28;20232;-81
2023/06/19 04:40:34;;;;;;;4.67;4.00;;;23.30;54.40;22.80;96288.00;;;;5058678;28;20194;-80
2023/06/19 04:43:05;;;;;;;4.20;3.80;;;23.30;54.40;22.80;96296.00;;;;5057396;28;20285;-82
2023/06/19 04:45:33;;;;;;;4.60;4.30;;;23.30;54.40;22.80;96299.00;;;;5061011;28;20194;-82
2023/06/19 04:48:03;;;;;;;4.07;3.77;;;23.30;54.20;22.90;96306.00;;;;5069322;28;20699;-81
2023/06/19 04:50:30;;;;;;;4.63;4.23;;;23.40;54.30;22.90;96308.00;;;;5065010;28;20694;-82
2023/06/19 04:52:57;;;;;;;4.40;4.10;;;23.40;54.40;22.90;96318.00;;;;5065449;28;20270;-82
2023/06/19 04:55:26;;;;;;;4.60;4.30;;;23.40;54.50;23.00;96326.00;;;;5065037;28;20266;-80
2023/06/19 04:57:53;;;;;;;4.63;4.23;;;23.40;54.30;23.00;96326.00;;;;5069237;28;20193;-80
2023/06/19 05:00:23;;;;;;;6.20;4.27;;;23.40;54.60;23.00;96343.00;;;;5059268;28;20289;-80
2023/06/19 05:02:50;;;;;;;4.47;4.07;;;23.50;54.80;23.00;96344.00;;;;5049011;28;20200;-81
2023/06/19 05:05:20;;;;;;;4.53;4.23;;;23.50;54.80;23.00;96343.00;;;;5030405;28;20598;-81
2023/06/19 05:07:47;;;;;;;4.37;4.00;;;23.50;54.50;23.00;96336.00;;;;5051461;28;20204;-81
2023/06/19 05:10:14;;;;;;;4.50;4.20;;;23.50;54.40;23.10;96332.00;;;;5059299;28;20201;-81
2023/06/19 05:12:41;;;;;;;5.30;4.80;;;23.50;54.40;23.10;96344.00;;;;5058636;28;20290;-82
2023/06/19 05:15:10;;;;;;;6.10;4.53;;;23.60;54.20;23.10;96331.00;;;;5059955;28;20230;-81
2023/06/19 05:17:38;;;;;;;4.43;4.03;;;23.60;54.20;23.20;96332.00;;;;5045729;28;20584;-82
2023/06/19 05:20:08;;;;;;;4.90;4.40;;;23.60;54.40;23.20;96336.00;;;;5052756;28;20197;-82
2023/06/19 05:22:37;;;;;;;5.00;4.60;;;23.60;54.40;23.20;96336.00;;;;5051998;28;20647;-82
2023/06/19 05:25:04;;;;;;;5.77;4.17;;;23.60;54.60;23.30;96331.00;;;;5059682;28;20662;-82
2023/06/19 05:27:32;;;;;;;4.20;3.90;;;23.70;54.60;23.30;96339.00;;;;5051877;28;20230;-82
2023/06/19 05:29:59;;;;;;;5.23;4.83;;;23.70;54.60;23.30;96328.00;;;;5060241;28;20199;-82
2023/06/19 05:32:26;;;;;;;5.10;4.70;;;23.70;54.60;23.40;96327.00;;;;5068672;28;20288;-81
2023/06/19 05:34:54;;;;;;;5.17;4.67;;;23.80;54.70;23.40;96336.00;;;;5056212;28;20274;-82
2023/06/19 05:37:23;;;;;;;5.07;4.53;;;23.90;54.80;23.50;96342.00;;;;5040541;28;20207;-80
2023/06/19 05:39:52;;;;;;;5.20;4.63;;;23.90;54.80;23.50;96337.00;;;;5043685;28;20217;-80
2023/06/19 05:42:20;;;;;;;5.97;5.37;;;23.90;55.10;23.60;96338.00;;;;5037047;28;20400;-79
2023/06/19 05:44:49;;;;;;;4.73;4.33;;;24.00;54.90;23.60;96353.00;;;;5050124;28;20348;-80
2023/06/19 05:47:19;;;;;;;4.50;4.20;;;24.00;54.90;23.70;96351.00;;;;5055662;28;20241;-81
2023/06/19 05:49:48;;;;;;;4.70;4.17;;;24.10;55.10;23.70;96357.00;;;;5053341;28;20271;-81
2023/06/19 05:52:16;;;;;;;5.43;4.90;;;24.10;55.30;23.80;96354.00;;;;5047070;28;20212;-80
2023/06/19 05:54:43;;;;;;;5.13;4.63;;;24.20;55.40;23.80;96351.00;;;;5065391;28;20309;-81
2023/06/19 05:57:12;;;;;;;5.20;4.73;;;24.20;55.20;23.90;96354.00;;;;5058558;28;20231;-81
2023/06/19 05:59:42;;;;;;;4.73;4.43;;;24.30;55.00;23.90;96357.00;;;;5046696;28;20223;-81
2023/06/19 06:02:09;;;;;;;4.90;4.43;;;24.30;55.00;24.00;96356.00;;;;5051661;28;20196;-80
2023/06/19 06:04:37;;;;;;;5.50;4.63;;;24.40;55.40;24.00;96358.00;;;;5033381;28;20216;-81
2023/06/19 06:07:04;;;;;;;5.37;4.87;;;24.40;54.50;24.10;96359.00;;;;5044042;28;20303;-81
2023/06/19 06:09:32;;;;;;;4.97;4.57;;;24.40;54.50;24.20;96365.00;;;;5045644;28;20207;-81
2023/06/19 06:12:00;;;;;;;5.27;4.60;;;24.50;54.30;24.20;96370.00;;;;5070710;28;20203;-82
2023/06/19 06:14:29;;;;;;;4.73;4.33;;;24.60;54.20;24.30;96370.00;;;;5056066;28;20281;-80
2023/06/19 06:16:56;;;;;;;5.17;4.70;;;24.60;54.20;24.30;96364.00;;;;5051184;28;20219;-82
2023/06/19 06:19:23;;;;;;;5.23;4.63;;;24.70;53.90;24.40;96369.00;;;;5048659;28;20627;-81
2023/06/19 06:21:51;;;;;;;5.07;4.57;;;24.70;54.10;24.50;96375.00;;;;5074202;28;20276;-82
2023/06/19 06:24:18;;;;;;;5.07;4.67;;;24.80;54.20;24.50;96371.00;;;;5065309;28;20250;-82
2023/06/19 06:26:46;;;;;;;6.27;4.93;;;24.90;54.40;24.60;96372.00;;;;5036446;28;20292;-81
2023/06/19 06:29:13;;;;;;;5.30;4.90;;;24.90;54.80;24.70;96369.00;;;;5050610;28;20207;-83
2023/06/19 06:31:42;;;;;;;5.67;4.70;;;25.00;54.10;24.80;96375.00;;;;5043891;28;20577;-83
2023/06/19 06:34:11;;;;;;;5.57;5.07;;;25.10;54.30;24.90;96376.00;;;;5051592;28;20240;-82
2023/06/19 06:36:39;;;;;;;4.57;4.27;;;25.10;54.40;24.90;96382.00;;;;5040215;28;20290;-82
2023/06/19 06:39:07;;;;;;;5.13;4.53;;;25.20;54.10;25.00;96377.00;;;;5043883;28;20212;-83
2023/06/19 06:41:34;;;;;;;6.23;5.13;;;25.30;54.00;25.10;96379.00;;;;5075028;28;20284;-84
2023/06/19 06:44:04;;;;;;;5.30;4.90;;;25.40;53.70;25.20;96386.00;;;;5043319;28;20227;-83
2023/06/19 06:46:31;;;;;;;4.80;4.50;;;25.40;53.50;25.30;96384.00;;;;5031180;28;20208;-84
2023/06/19 06:49:00;;;;;;;5.13;4.70;;;25.50;53.50;25.40;96385.00;;;;5039418;28;20636;-81
2023/06/19 06:51:27;;;;;;;5.47;4.97;;;25.60;53.30;25.50;96386.00;;;;5037031;28;20311;-83
2023/06/19 06:53:55;;;;;;;5.03;4.63;;;25.70;53.70;25.60;96398.00;;;;5042165;28;20305;-83
2023/06/19 06:56:25;;;;;;;5.83;5.33;;;25.80;53.60;25.80;96397.00;;;;5055671;28;20231;-80
2023/06/19 06:58:53;;;;;;;5.63;5.20;;;25.90;53.40;25.90;96401.00;;;;5058244;28;20268;-81
2023/06/19 07:01:21;;;;;;;4.77;4.37;;;26.00;53.30;26.00;96401.00;;;;5046489;28;20221;-80
2023/06/19 07:03:49;;;;;;;6.80;4.83;;;26.20;53.10;26.10;96410.00;;;;5062823;28;20667;-80
2023/06/19 07:06:18;;;;;;;5.00;4.60;;;26.30;52.60;26.20;96413.00;;;;5047881;28;20211;-80
2023/06/19 07:08:47;;;;;;;4.37;4.07;;;26.40;52.60;26.30;96410.00;;;;5048638;28;20193;-80
2023/06/19 07:11:14;;;;;;;4.63;4.30;;;26.50;52.70;26.40;96416.00;;;;5057102;28;20197;-80
2023/06/19 07:13:42;;;;;;;4.30;3.83;;;26.60;52.50;26.50;96425.00;;;;5062207;28;20293;-80
2023/06/19 07:16:09;;;;;;;5.00;4.50;;;26.70;52.20;26.60;96416.00;;;;5064333;28;20295;-81
2023/06/19 07:18:38;;;;;;;4.93;4.53;;;26.80;51.90;26.70;96423.00;;;;5097967;28;20260;-81
2023/06/19 07:21:13;;;;;;;4.97;4.47;;;26.80;51.80;26.80;96427.00;;;;5064149;28;20196;-80
2023/06/19 07:23:44;;;;;;;5.50;3.83;;;27.00;51.70;26.90;96430.00;;;;5063598;28;20216;-81
2023/06/19 07:26:11;;;;;;;4.55;4.25;;;27.10;51.60;27.00;96434.00;;;;5070787;28;20231;-79
2023/06/19 07:28:38;;;;;;;4.38;4.07;;;27.20;51.70;27.10;96432.00;;;;5058687;28;20782;-80
2023/06/19 07:31:06;;;;;;;5.50;4.10;;;27.20;51.50;27.20;96442.00;;;;5060371;28;20240;-79
2023/06/19 07:33:35;;;;;;;5.90;4.37;;;27.30;51.10;27.30;96445.00;;;;5059935;28;20223;-80
2023/06/19 07:36:03;;;;;;;4.83;4.43;;;27.40;51.30;27.30;96450.00;;;;5060347;28;20588;-79
2023/06/19 07:38:30;;;;;;;4.60;4.20;;;27.50;51.00;27.40;96449.00;;;;5050711;28;20205;-80
2023/06/19 07:40:59;;;;;;;5.18;4.53;;;27.60;50.90;27.50;96447.00;;;;5060808;28;20279;-80
2023/06/19 07:43:27;;;;;;;5.50;4.47;;;27.60;50.90;27.60;96453.00;;;;5059167;28;20216;-80
2023/06/19 07:45:54;;;;;;;5.07;4.70;;;27.70;50.60;27.70;96450.00;;;;5059442;28;20384;-80
2023/06/19 07:48:21;;;;;;;4.78;4.38;;;27.80;50.40;27.80;96451.00;;;;5059075;28;20200;-80
2023/06/19 07:50:49;;;;;;;5.07;4.70;;;27.90;50.40;27.90;96448.00;;;;5059589;28;20209;-80
2023/06/19 07:53:16;;;;;;;5.05;4.75;;;28.00;50.40;28.00;96455.00;;;;5061756;28;20242;-80
2023/06/19 07:55:44;;;;;;;4.95;4.55;;;28.10;50.50;28.10;96448.00;;;;5059795;28;20224;-80
2023/06/19 07:58:13;;;;;;;5.45;4.70;;;28.20;50.30;28.30;96456.00;;;;5058471;28;20203;-79
2023/06/19 08:00:41;;;;;;;4.30;3.90;;;28.30;49.70;28.40;96446.00;;;;5058339;28;20235;-80
2023/06/19 08:03:08;;;;;;;4.43;4.13;;;28.50;49.60;28.50;96449.00;;;;5061470;28;20199;-80
2023/06/19 08:05:35;;;;;;;6.05;4.18;;;28.60;49.60;28.60;96458.00;;;;5062107;28;20272;-80
2023/06/19 08:08:04;;;;;;;4.65;4.25;;;28.70;49.50;28.70;96456.00;;;;5059681;28;20200;-80
2023/06/19 08:10:32;;;;;;;4.53;4.22;;;28.80;49.50;28.80;96457.00;;;;5060954;28;20246;-79
2023/06/19 08:12:59;;;;;;;5.03;4.63;;;28.90;49.50;28.90;96466.00;;;;5056927;28;20223;-80
2023/06/19 08:15:28;;;;;;;5.00;4.43;;;29.00;49.10;29.00;96465.00;;;;5060224;28;20232;-80
2023/06/19 08:17:55;;;;;;;4.97;4.63;;;29.10;48.50;29.10;96477.00;;;;5058496;28;20196;-79
2023/06/19 08:20:23;;;;;;;4.50;4.20;;;29.20;48.30;29.20;96484.00;;;;5060143;28;20207;-79
2023/06/19 08:22:50;;;;;;;5.05;4.55;;;29.30;48.00;29.20;96480.00;;;;5060703;28;20575;-79
2023/06/19 08:25:17;;;;;;;9.00;4.68;;;29.30;48.30;29.20;96473.00;;;;5061921;28;20230;-79
2023/06/19 08:27:45;;;;;;;4.85;4.53;;;29.40;47.90;29.20;96477.00;;;;5070810;28;20200;-80
2023/06/19 08:30:13;;;;;;;4.97;4.20;;;29.40;48.00;29.30;96480.00;;;;5066238;28;20205;-80
2023/06/19 08:32:42;;;;;;;5.13;4.65;;;29.40;47.80;29.30;96489.00;;;;5058055;28;20673;-79
2023/06/19 08:35:10;;;;;;;7.15;4.38;;;29.50;47.70;29.40;96491.00;;;;5056930;28;20628;-80
2023/06/19 08:37:37;;;;;;;4.47;4.10;;;29.50;47.80;29.40;96488.00;;;;5059432;28;20227;-80
2023/06/19 08:40:09;;;;;;;4.78;4.18;;;29.50;46.90;29.40;96489.00;;;;5056948;28;20200;-79
2023/06/19 08:42:36;;;;;;;4.40;4.00;;;29.60;46.70;29.40;96492.00;;;;5055420;28;20228;-79
2023/06/19 08:45:05;;;;;;;4.15;3.85;;;29.60;46.60;29.40;96493.00;;;;5059045;28;20216;-82
2023/06/19 08:47:34;;;;;;;4.10;3.80;;;29.60;46.80;29.50;96491.00;;;;5058312;28;20196;-83
2023/06/19 08:50:05;;;;;;;4.47;4.07;;;29.60;47.00;29.50;96483.00;;;;5057959;28;20213;-82
2023/06/19 08:52:32;;;;;;;4.55;4.13;;;29.70;46.90;29.50;96491.00;;;;5048843;28;20201;-82
2023/06/19 08:55:00;;;;;;;4.90;4.35;;;29.70;47.00;29.60;96489.00;;;;5057898;28;20282;-82
2023/06/19 08:57:36;;;;;;;4.28;3.97;;;29.70;46.30;29.60;96497.00;;;;5052873;28;20224;-81
2023/06/19 09:00:06;;;;;;;4.65;4.32;;;29.80;47.00;29.80;96483.00;;;;5055022;28;20200;-81
2023/06/19 09:02:47;;;;;;;4.47;4.07;;;29.90;47.00;29.90;96486.00;;;;5044738;28;20201;-81
2023/06/19 09:05:19;;;;;;;4.50;4.20;;;30.00;46.90;30.10;96478.00;;;;5049517;28;20693;-82
2023/06/19 09:07:57;;;;;;;5.35;4.85;;;30.10;47.00;30.30;96486.00;;;;5054359;28;20289;-80
2023/06/19 09:10:26;;;;;;;4.80;4.40;;;30.30;45.90;30.40;96485.00;;;;5053476;28;20208;-80
2023/06/19 09:13:01;;;;;;;5.00;4.47;;;30.40;46.00;30.40;96483.00;;;;5053790;28;20689;-81
2023/06/19 09:15:31;;;;;;;4.88;4.47;;;30.50;45.30;30.50;96483.00;;;;5053585;28;20193;-81
2023/06/19 09:18:07;;;;;;;4.80;4.40;;;30.60;45.80;30.50;96484.00;;;;5054867;28;20220;-81
2023/06/19 09:20:41;;;;;;;5.03;4.63;;;30.70;45.40;30.50;96480.00;;;;5054742;28;20611;-81
2023/06/19 09:23:08;;;;;;;4.45;4.13;;;30.70;45.50;30.60;96486.00;;;;5068936;28;20227;-81
2023/06/19 09:25:46;;;;;;;4.25;3.85;;;30.80;45.60;30.60;96487.00;;;;5053748;28;20849;-82
2023/06/19 09:28:20;;;;;;;4.90;4.50;;;30.80;45.40;30.60;96483.00;;;;5057003;28;20280;-81
2023/06/19 09:30:56;;;;;;;4.63;4.25;;;30.80;45.00;30.60;96471.00;;;;5051563;28;20283;-82
2023/06/19 09:33:24;;;;;;;4.43;4.03;;;30.80;45.10;30.60;96480.00;;;;5056435;28;20227;-81
2023/06/19 09:35:54;;;;;;;5.75;4.35;;;30.80;45.00;30.50;96491.00;;;;5057970;28;20224;-81
2023/06/19 09:38:25;;;;;;;4.40;4.10;;;30.80;45.00;30.60;96495.00;;;;5058290;28;20296;-81
2023/06/19 09:40:54;;;;;;;5.38;4.70;;;30.80;45.00;30.50;96497.00;;;;5063348;28;20260;-81
2023/06/19 09:43:35;;;;;;;5.20;4.70;;;30.80;44.70;30.50;96492.00;;;;5064060;28;20211;-81
2023/06/19 09:46:05;;;;;;;4.97;4.60;;;30.70;44.60;30.50;96494.00;;;;5064560;28;20201;-82
2023/06/19 09:48:35;;;;;;;4.40;4.10;;;30.70;44.90;30.40;96501.00;;;;5049305;28;20634;-81
2023/06/19 09:51:20;;;;;;;3.67;3.38;;;30.70;45.50;30.40;96494.00;;;;5055788;28;20196;-81
2023/06/19 09:53:50;;;;;;;3.38;3.15;;;30.70;44.80;30.40;96486.00;;;;5055837;28;20315;-82
2023/06/19 09:56:21;;;;;;;3.08;2.88;;;30.70;45.00;30.50;96491.00;;;;5055150;28;20257;-82
2023/06/19 09:58:52;;;;;;;3.08;2.88;;;30.70;45.20;30.50;96495.00;;;;5037620;28;20284;-81
2023/06/19 10:01:21;;;;;;;2.90;2.70;;;30.70;45.30;30.50;96494.00;;;;5035833;28;20287;-83
2023/06/19 10:03:48;;;;;;;2.83;2.63;;;30.70;45.20;30.50;96498.00;;;;5067375;28;20221;-81
2023/06/19 10:06:19;;;;;;;2.85;2.65;;;30.70;44.70;30.50;96492.00;;;;5049561;28;20279;-81
2023/06/19 10:08:47;;;;;;;2.85;2.65;;;30.70;45.10;30.60;96488.00;;;;5077321;28;20204;-81
2023/06/19 10:11:15;;;;;;;3.47;2.97;;;30.70;45.00;30.70;96485.00;;;;5052855;28;20262;-81
2023/06/19 10:13:44;;;;;;;3.08;2.88;;;30.80;45.10;30.80;96490.00;;;;5053360;28;20217;-82
2023/06/19 10:16:22;;;;;;;3.05;2.75;;;31.00;45.30;31.00;96483.00;;;;5053236;28;20575;-81
2023/06/19 10:18:49;;;;;;;2.50;2.40;;;31.20;44.70;31.20;96495.00;;;;5053869;28;20212;-82
2023/06/19 10:21:19;;;;;;;3.05;2.53;;;31.40;45.10;31.40;96489.00;;;;5055500;28;20232;-82
2023/06/19 10:23:57;;;;;;;2.80;2.60;;;31.60;44.50;31.50;96495.00;;;;5053903;28;20231;-81
2023/06/19 10:26:33;;;;;;;3.17;2.97;;;31.90;44.00;31.70;96495.00;;;;5047917;28;20208;-82
2023/06/19 10:29:00;;;;;;;2.45;2.35;;;32.10;43.70;31.90;96496.00;;;;5054159;28;20204;-81
2023/06/19 10:31:28;;;;;;;2.55;2.45;;;32.30;43.20;32.00;96494.00;;;;5055544;28;20196;-82
2023/06/19 10:33:55;;;;;;;3.17;2.70;;;32.40;42.70;32.10;96490.00;;;;5055871;28;20224;-81
2023/06/19 10:36:26;;;;;;;2.28;2.17;;;32.50;43.00;32.20;96487.00;;;;5055465;28;20197;-81
2023/06/19 10:38:54;;;;;;;2.60;2.22;;;32.70;42.90;32.40;96477.00;;;;5055418;28;20208;-81
2023/06/19 10:41:24;;;;;;;2.42;2.30;;;32.70;43.10;32.50;96484.00;;;;5054847;28;20205;-82
2023/06/19 10:43:57;;;;;;;2.90;2.70;;;32.80;42.70;32.60;96489.00;;;;5055078;28;20216;-81
2023/06/19 10:46:29;;;;;;;2.60;2.40;;;33.00;42.20;32.70;96485.00;;;;5055479;28;20627;-81
2023/06/19 10:49:00;;;;;;;2.78;2.55;;;33.00;42.30;32.80;96484.00;;;;5055907;28;20200;-82
2023/06/19 10:51:31;;;;;;;3.30;3.00;;;33.10;42.20;32.90;96487.00;;;;5070614;28;20662;-81
2023/06/19 10:53:59;;;;;;;2.92;2.72;;;33.20;41.90;32.90;96490.00;;;;5053543;28;20231;-80
2023/06/19 10:56:27;;;;;;;3.95;2.42;;;33.20;41.80;33.00;96476.00;;;;5053195;28;20204;-81
2023/06/19 10:59:00;;;;;;;4.18;3.13;;;33.20;42.10;33.00;96477.00;;;;5053180;28;20196;-80
2023/06/19 11:01:35;;;;;;;3.25;2.95;;;33.20;41.80;33.10;96478.00;;;;5063728;28;20220;-79